createdAt,value
2022-11-23T00:00:38.640Z,59.60
2022-11-23T00:03:30.717Z,57.10
2022-11-23T00:06:04.819Z,57.50
2022-11-23T00:08:44.074Z,52.40
2022-11-23T00:11:17.750Z,62.60
2022-11-23T00:13:51.115Z,52.40
2022-11-23T00:17:40.625Z,59.00
2022-11-23T00:30:42.466Z,61.00
2022-11-23T00:33:18.272Z,66.00
2022-11-23T00:36:56.284Z,67.60
2022-11-23T00:39:29.085Z,61.80
2022-11-23T00:56:23.742Z,60.30
2022-11-23T00:58:58.742Z,63.70
2022-11-23T01:11:03.958Z,64.70
2022-11-23T01:14:25.829Z,76.00
2022-11-23T01:17:22.243Z,60.20
2022-11-23T01:19:54.528Z,61.30
2022-11-23T01:27:08.130Z,66.50
2022-11-23T01:34:34.363Z,67.10
2022-11-23T01:37:25.351Z,68.40
2022-11-23T01:39:57.874Z,71.90
2022-11-23T01:42:58.257Z,70.00
2022-11-23T01:50:01.704Z,67.60
2022-11-23T01:52:34.123Z,64.70
2022-11-23T01:55:13.574Z,67.00
2022-11-23T01:57:47.079Z,55.00
2022-11-23T02:12:23.447Z,75.30
2022-11-23T02:14:55.764Z,77.40
2022-11-23T02:17:28.250Z,68.00
2022-11-23T02:33:52.022Z,54.10
2022-11-23T02:41:03.233Z,53.50
2022-11-23T02:43:35.871Z,53.80
2022-11-23T02:46:15.459Z,55.70
2022-11-23T02:48:47.997Z,58.80
2022-11-23T02:51:27.256Z,62.60
2022-11-23T02:53:59.660Z,61.90
2022-11-23T02:56:38.251Z,67.00
2022-11-23T02:59:10.699Z,71.10
2022-11-23T03:01:49.418Z,84.80
2022-11-23T03:04:27.340Z,77.70
2022-11-23T03:16:31.598Z,80.40
2022-11-23T03:19:11.395Z,72.40
2022-11-23T03:26:34.541Z,90.90
2022-11-23T03:29:51.093Z,79.90
2022-11-23T03:32:28.498Z,113.80
2022-11-23T03:35:49.762Z,75.10
2022-11-23T03:39:05.346Z,84.80
2022-11-23T03:46:13.472Z,70.50
2022-11-23T03:48:45.807Z,65.00
2022-11-23T03:56:05.503Z,67.00
2022-11-23T04:03:55.407Z,65.90
2022-11-23T04:06:44.565Z,68.60
2022-11-23T04:13:58.740Z,58.30
2022-11-23T04:16:31.262Z,57.90
2022-11-23T04:19:10.449Z,60.00
2022-11-23T04:21:42.575Z,65.50
2022-11-23T04:24:15.022Z,66.90
2022-11-23T04:26:55.375Z,72.10
2022-11-23T04:29:27.741Z,72.40
2022-11-23T04:32:47.335Z,69.20
2022-11-23T04:35:19.943Z,85.60
2022-11-23T04:42:45.361Z,59.00
2022-11-23T04:45:17.663Z,88.70
2022-11-23T04:47:49.975Z,109.60
2022-11-23T04:50:22.835Z,107.70
2022-11-23T04:53:40.720Z,98.70
2022-11-23T04:56:13.365Z,87.40
2022-11-23T04:58:46.182Z,87.50
2022-11-23T05:10:36.182Z,107.70
2022-11-23T05:17:39.016Z,62.30
2022-11-23T05:20:15.196Z,90.90
2022-11-23T05:23:21.484Z,79.30
2022-11-23T05:26:28.746Z,85.90
2022-11-23T05:33:50.031Z,60.80
2022-11-23T05:37:07.176Z,63.30
2022-11-23T05:39:41.743Z,63.50
2022-11-23T05:42:14.165Z,73.60
2022-11-23T05:44:54.433Z,76.20
2022-11-23T05:47:55.712Z,79.50
2022-11-23T05:51:18.439Z,65.30
2022-11-23T05:59:06.682Z,71.80
2022-11-23T06:02:11.499Z,92.60
2022-11-23T06:04:44.058Z,91.00
2022-11-23T06:07:27.345Z,69.00
2022-11-23T06:10:51.267Z,67.90
2022-11-23T06:14:04.664Z,56.30
2022-11-23T06:17:04.645Z,56.70
2022-11-23T06:19:47.541Z,55.50
2022-11-23T06:22:19.891Z,64.00
2022-11-23T06:25:58.997Z,69.00
2022-11-23T06:28:35.916Z,68.60
2022-11-23T06:31:09.230Z,59.50
2022-11-23T06:33:41.633Z,66.00
2022-11-23T06:36:15.806Z,67.30
2022-11-23T06:38:51.879Z,64.30
2022-11-23T06:41:32.334Z,60.70
2022-11-23T06:44:07.618Z,74.20
2022-11-23T06:46:47.838Z,75.80
2022-11-23T06:49:21.843Z,84.50
2022-11-23T06:52:13.866Z,68.80
2022-11-23T06:54:46.408Z,91.80
2022-11-23T06:57:20.545Z,134.00
2022-11-23T06:59:52.839Z,175.00
2022-11-23T07:02:28.980Z,99.90
2022-11-23T07:05:02.479Z,125.20
2022-11-23T07:07:35.993Z,175.40
2022-11-23T07:10:18.324Z,94.20
2022-11-23T07:12:53.677Z,103.80
2022-11-23T07:15:26.491Z,72.60
2022-11-23T07:17:58.715Z,87.30
2022-11-23T07:20:31.298Z,79.60
2022-11-23T07:23:05.888Z,77.80
2022-11-23T07:25:39.735Z,86.10
2022-11-23T07:28:14.431Z,87.40
2022-11-23T07:30:46.575Z,92.40
2022-11-23T07:33:20.087Z,73.90
2022-11-23T07:35:52.882Z,79.10
2022-11-23T07:38:25.807Z,79.50
2022-11-23T07:40:59.043Z,67.60
2022-11-23T07:43:45.831Z,60.50
2022-11-23T07:46:21.473Z,64.00
2022-11-23T07:49:56.521Z,67.20
2022-11-23T07:52:28.719Z,135.00
2022-11-23T07:55:01.394Z,147.60
2022-11-23T07:57:40.720Z,91.90
2022-11-23T08:00:15.286Z,115.90
2022-11-23T08:03:42.670Z,127.30
2022-11-23T08:06:15.830Z,82.20
2022-11-23T08:08:55.682Z,96.60
2022-11-23T08:11:27.852Z,74.00
2022-11-23T08:14:06.737Z,61.00
2022-11-23T08:16:38.869Z,62.80
2022-11-23T08:19:17.569Z,55.60
2022-11-23T08:26:40.865Z,65.70
2022-11-23T08:29:52.931Z,62.40
2022-11-23T08:32:26.545Z,79.10
2022-11-23T08:34:59.292Z,71.80
2022-11-23T08:37:37.685Z,63.50
2022-11-23T08:40:12.106Z,65.20
2022-11-23T08:43:01.791Z,67.30
2022-11-23T08:45:34.401Z,54.20
2022-11-23T08:49:19.146Z,74.00
2022-11-23T08:51:51.667Z,52.70
2022-11-23T08:54:24.719Z,74.00
2022-11-23T09:01:48.753Z,76.90
2022-11-23T09:04:30.919Z,60.50
2022-11-23T09:07:55.335Z,85.50
2022-11-23T09:10:33.935Z,86.60
2022-11-23T09:22:03.629Z,55.60
2022-11-23T09:24:36.149Z,50.30
2022-11-23T09:27:09.100Z,47.40
2022-11-23T09:35:33.564Z,50.40
2022-11-23T09:38:13.178Z,48.10
2022-11-23T09:42:00.592Z,47.40
2022-11-23T09:51:58.654Z,46.00
2022-11-23T09:54:34.678Z,44.60
2022-11-23T09:57:07.906Z,70.40
2022-11-23T09:59:47.259Z,50.50
2022-11-23T10:02:24.149Z,56.70
2022-11-23T10:04:57.253Z,93.70
2022-11-23T10:07:47.510Z,74.00
2022-11-23T10:10:34.962Z,55.40
2022-11-23T10:13:21.006Z,75.40
2022-11-23T10:16:14.608Z,51.60
2022-11-23T10:18:57.399Z,89.50
2022-11-23T10:21:41.861Z,53.10
2022-11-23T10:24:20.813Z,39.50
2022-11-23T10:26:53.394Z,48.20
2022-11-23T10:29:32.462Z,49.10
2022-11-23T10:32:06.723Z,43.80
2022-11-23T10:34:52.333Z,42.10
2022-11-23T10:37:25.387Z,41.70
2022-11-23T10:39:58.210Z,43.60
2022-11-23T10:42:34.850Z,47.40
2022-11-23T10:45:19.268Z,66.20
2022-11-23T11:17:03.719Z,63.40
2022-11-23T11:42:45.568Z,35.70
2022-11-23T11:49:43.303Z,44.20
2022-11-23T11:52:28.342Z,47.20
2022-11-23T12:08:42.625Z,111.50
2022-11-23T12:11:16.158Z,108.80
2022-11-23T12:39:09.918Z,44.50
2022-11-23T13:05:15.974Z,46.90
2022-11-23T13:12:59.702Z,54.80
2022-11-23T13:20:51.706Z,33.20
2022-11-23T13:23:24.316Z,45.20
2022-11-23T13:27:04.472Z,53.40
2022-11-23T13:39:02.067Z,35.80
2022-11-23T13:55:29.129Z,44.50
2022-11-23T14:02:49.665Z,39.30
2022-11-23T14:14:10.630Z,37.50
2022-11-23T14:21:49.973Z,54.10
2022-11-23T14:38:18.248Z,35.50
2022-11-23T14:45:42.606Z,39.80
2022-11-23T14:52:20.284Z,41.90
2022-11-23T14:54:53.301Z,40.30
2022-11-23T15:01:29.784Z,40.10
2022-11-23T15:26:34.710Z,51.00
2022-11-23T15:30:39.881Z,48.90
2022-11-23T15:47:27.702Z,70.60
2022-11-23T15:55:17.298Z,54.00
2022-11-23T15:58:31.970Z,51.60
2022-11-23T16:05:25.047Z,62.30
2022-11-23T16:08:51.137Z,61.20
2022-11-23T16:29:23.940Z,64.20
2022-11-23T16:36:52.940Z,91.40
2022-11-23T16:40:22.549Z,90.30
2022-11-23T16:47:30.830Z,103.60
2022-11-23T16:54:53.969Z,74.20
2022-11-23T16:57:34.925Z,76.10
2022-11-23T17:03:34.466Z,72.50
2022-11-23T17:06:08.513Z,61.00
2022-11-23T17:09:10.177Z,57.80
2022-11-23T17:11:53.384Z,55.70
2022-11-23T17:15:14.873Z,88.70
2022-11-23T17:18:01.059Z,88.20
2022-11-23T17:25:47.042Z,81.80
2022-11-23T17:28:22.375Z,54.40
2022-11-23T17:31:15.803Z,63.00
2022-11-23T17:33:50.708Z,60.10
2022-11-23T17:42:08.026Z,62.90
2022-11-23T17:45:46.023Z,58.10
2022-11-23T17:48:19.521Z,62.40
2022-11-23T17:50:51.784Z,83.90
2022-11-23T18:05:12.338Z,49.50
2022-11-23T18:08:36.522Z,52.30
2022-11-23T18:11:09.927Z,54.60
2022-11-23T18:13:50.389Z,49.30
2022-11-23T18:21:31.897Z,57.60
2022-11-23T18:24:11.009Z,54.30
2022-11-23T18:26:45.157Z,61.10
2022-11-23T18:29:23.768Z,62.90
2022-11-23T18:31:55.940Z,53.80
2022-11-23T18:34:34.341Z,57.10
2022-11-23T18:37:06.903Z,56.30
2022-11-23T18:39:45.575Z,65.10
2022-11-23T18:42:17.766Z,58.80
2022-11-23T18:44:56.404Z,59.40
2022-11-23T18:47:28.913Z,53.50
2022-11-23T18:50:09.743Z,57.40
2022-11-23T18:57:18.471Z,71.60
2022-11-23T18:59:59.527Z,66.00
2022-11-23T19:03:18.525Z,64.50
2022-11-23T19:06:42.892Z,60.00
2022-11-23T19:14:06.501Z,59.20
2022-11-23T19:16:45.498Z,82.50
2022-11-23T19:19:18.642Z,66.00
2022-11-23T19:22:00.197Z,64.90
2022-11-23T19:25:21.586Z,69.60
2022-11-23T19:28:02.929Z,63.00
2022-11-23T19:31:27.104Z,75.70
2022-11-23T19:35:53.145Z,84.40
2022-11-23T19:39:36.122Z,79.70
2022-11-23T19:42:11.077Z,67.80
2022-11-23T19:44:50.010Z,76.90
2022-11-23T19:47:23.063Z,96.40
2022-11-23T19:50:02.860Z,130.30
2022-11-23T20:11:44.832Z,75.70
2022-11-23T20:15:34.333Z,72.00
2022-11-23T20:18:06.673Z,84.70
2022-11-23T20:20:49.320Z,74.80
2022-11-23T20:32:07.093Z,71.70
2022-11-23T20:34:39.258Z,75.40
2022-11-23T20:37:18.574Z,73.10
2022-11-23T20:39:52.972Z,83.30
2022-11-23T20:42:58.160Z,79.00
2022-11-23T20:52:44.093Z,83.10
2022-11-23T20:59:08.576Z,99.40
2022-11-23T21:01:41.070Z,86.90
2022-11-23T21:04:20.570Z,86.90
2022-11-23T21:06:53.084Z,88.80
2022-11-23T21:09:31.931Z,120.90
2022-11-23T21:16:16.785Z,166.10
2022-11-23T21:18:48.935Z,115.50
2022-11-23T21:25:52.298Z,95.80
2022-11-23T21:28:24.531Z,91.40
2022-11-23T21:35:27.783Z,78.10
2022-11-23T21:38:00.429Z,85.10
2022-11-23T21:40:33.970Z,90.40
2022-11-23T21:43:06.149Z,69.50
2022-11-23T21:45:38.373Z,70.30
2022-11-23T21:48:10.681Z,71.20
2022-11-23T21:50:42.830Z,72.60
2022-11-23T21:53:15.518Z,76.30
2022-11-23T21:55:47.715Z,83.60
2022-11-23T21:58:19.822Z,71.90
2022-11-23T22:00:52.256Z,72.30
2022-11-23T22:03:24.553Z,75.10
2022-11-23T22:06:00.760Z,66.20
2022-11-23T22:08:33.540Z,71.20
2022-11-23T22:11:13.709Z,75.50
2022-11-23T22:13:46.926Z,74.00
2022-11-23T22:16:21.353Z,130.10
2022-11-23T22:18:56.077Z,127.70
2022-11-23T22:21:30.275Z,72.40
2022-11-23T22:24:03.241Z,70.30
2022-11-23T22:26:35.883Z,71.60
2022-11-23T22:29:08.371Z,70.60
2022-11-23T22:31:40.832Z,69.50
2022-11-23T22:34:15.280Z,75.80
2022-11-23T22:36:47.531Z,72.30
2022-11-23T22:39:19.885Z,67.50
2022-11-23T22:41:52.269Z,70.60
2022-11-23T22:44:24.885Z,75.50
2022-11-23T22:46:57.549Z,62.30
2022-11-23T22:49:30.024Z,61.40
2022-11-23T22:52:02.267Z,64.70
2022-11-23T22:54:34.622Z,63.60
2022-11-23T22:57:07.491Z,59.60
2022-11-23T22:59:39.973Z,63.70
2022-11-23T23:02:12.176Z,61.80
2022-11-23T23:04:44.395Z,58.00
2022-11-23T23:07:16.646Z,55.90
2022-11-23T23:09:48.720Z,66.10
2022-11-23T23:12:20.899Z,55.70
2022-11-23T23:14:54.759Z,58.00
2022-11-23T23:17:29.890Z,58.30
2022-11-23T23:20:02.089Z,56.40
2022-11-23T23:22:34.410Z,52.80
2022-11-23T23:25:08.460Z,53.30
2022-11-23T23:27:40.930Z,52.80
2022-11-23T23:30:15.513Z,55.20
2022-11-23T23:32:47.749Z,55.30
2022-11-23T23:35:20.291Z,49.30
2022-11-23T23:37:53.693Z,50.90
2022-11-23T23:40:25.882Z,48.40
2022-11-23T23:42:58.719Z,51.40
2022-11-23T23:45:30.885Z,42.20
2022-11-23T23:48:03.307Z,43.60
2022-11-23T23:50:37.816Z,46.60
2022-11-23T23:53:10.076Z,48.60
2022-11-23T23:55:42.211Z,50.90
2022-11-23T23:58:17.889Z,51.70
